Latest Coastal Weather Observations for Lord Howe Island

IDN60701

Issued at 11:31 am EDT Sunday 17 December 2017 (issued every 10 minutes, with the page automatically refreshed every 10 minutes)

About coastal observations | Map of coastal stations | Coastal observations for NSW | Marine services | Other Formats
Station Details ID: 200839 Name: LORD HOWE ISLAND AERO Lat: -31.54 Lon: 159.08 Height: 5.0 m
Data from the previous 72 hours. | See also: Recent months at Lord Howe Island
Date/Time
EDT
Temp
°C
Wind Pressure Rain since
9am
mm
Weather Cloud Vis
km
Sea
Height
m
Swell
Dir  Spd
kts
Gust
kts
hPa Trend Height
m
Period
s
Dir
17/11:30am 24.3 ENE 8 12 1020.1 - 0.0 - Partly cloudy 10 - - - -
17/11:00am 24.5 E 8 10 1020.2 - 0.0 - - 10 - - - -
17/10:30am 24.2 ENE 8 11 1020.1 - 0.0 - Partly cloudy 10 - - - -
17/10:00am 23.5 E 9 10 1019.9 - 0.0 - Partly cloudy 10 - - - -
17/09:30am 23.9 E 8 11 1019.8 - 0.0 - Partly cloudy 10 - - - -
17/09:00am 22.7 ENE 8 11 1019.6 - 0.0 - Mostly clear 10 - - - -
17/08:30am 23.5 E 9 11 1019.5 - 0.0 - - 10 - - - -
17/08:00am 23.2 ENE 10 13 1019.1 - 0.0 - Partly cloudy 10 - - - -
17/07:30am 23.0 ENE 10 13 1019.0 - 0.0 - Partly cloudy 10 - - - -
17/07:00am 22.1 ENE 8 10 1018.8 - 0.0 - Partly cloudy 10 - - - -
17/06:30am 22.6 ENE 8 10 1018.7 - 0.0 - Partly cloudy 10 - - - -
17/06:00am 21.9 ENE 9 11 1018.3 F 0.0 Fine Mostly clear 25 - - - -
17/05:30am 21.4 NE 12 13 1018.0 - 0.0 - - 10 - - - -
17/05:00am 21.3 ENE 11 13 1018.0 - 0.0 - Partly cloudy 10 - - - -
17/04:30am 21.3 ENE 10 13 1018.0 - 0.0 - - 10 - - - -
17/04:00am 21.4 ENE 10 12 1018.0 - 0.0 - Partly cloudy 10 - - - -
17/03:30am 21.6 NE 11 15 1018.1 - 0.0 - Partly cloudy 10 - - - -
17/03:00am 21.8 NE 12 14 1018.1 - 0.0 - Partly cloudy 10 - - - -
17/02:30am 21.8 ENE 14 16 1018.2 - 0.0 - Partly cloudy 10 - - - -
17/02:00am 21.9 ENE 14 16 1018.4 - 0.0 - Partly cloudy 10 - - - -
17/01:30am 22.0 NE 14 16 1018.6 - 0.0 - Partly cloudy 10 - - - -
17/01:00am 22.1 NE 13 16 1019.0 - 0.0 - Partly cloudy 10 - - - -
17/12:30am 22.1 NE 13 16 1019.2 - 0.0 - Partly cloudy 10 - - - -
17/12:00am 22.2 ENE 14 17 1019.3 - 0.0 - - 10 - - - -
 
Date/Time
EDT
Temp
°C
Wind Pressure Rain since
9am
mm
Weather Cloud Vis
km
Sea
Height
m
Swell
Dir  Spd
kts
Gust
kts
hPa Trend Height
m
Period
s
Dir
16/11:30pm 22.4 ENE 14 17 1019.7 - 0.0 - Partly cloudy 10 - - - -
16/11:00pm 22.3 ENE 13 16 1019.8 - 0.0 - - 10 - - - -
16/10:30pm 22.3 ENE 14 17 1019.8 - 0.0 - - 10 - - - -
16/10:00pm 22.4 ENE 15 17 1019.8 - 0.0 - Partly cloudy 10 - - - -
16/09:30pm 22.4 ENE 14 17 1019.7 - 0.0 - - 10 - - - -
16/09:00pm 22.4 ENE 13 17 1019.4 - 0.0 - Mostly clear 10 - - - -
16/08:30pm 22.4 ENE 13 16 1019.2 - 0.0 - - 10 - - - -
16/08:00pm 22.4 ENE 13 15 1019.2 - 0.0 - - 10 - - - -
16/07:30pm 22.4 ENE 11 13 1019.1 - 0.0 - - 10 - - - -
16/07:00pm 22.6 ENE 10 13 1018.9 - 0.0 - Partly cloudy 10 - - - -
16/06:30pm 23.1 ENE 9 12 1018.7 - 0.0 - Partly cloudy 10 - - - -
16/06:00pm 23.6 ENE 9 10 1018.5 - 0.0 - Mostly clear 10 - - - -
16/05:30pm 24.0 NE 9 11 1018.3 - 0.0 - - 10 - - - -
16/05:00pm 24.1 NE 10 12 1018.1 - 0.0 - - 10 - - - -
16/04:30pm 24.6 NE 9 12 1018.1 - 0.0 - Partly cloudy 10 - - - -
16/04:00pm 24.3 NE 9 11 1018.4 - 0.0 - - 10 - - - -
16/03:30pm 24.6 NE 9 10 1018.8 - 0.0 - - 10 - - - -
16/03:00pm 24.8 NE 10 12 1019.0 R 0.0 Fine Mostly clear 25 - - - -
16/02:30pm 24.6 NE 10 12 1019.2 - 0.0 - Partly cloudy 10 - - - -
16/02:00pm 24.5 NE 10 12 1019.3 - 0.0 - Partly cloudy 10 - - - -
16/01:30pm 24.9 NE 11 14 1019.5 - 0.0 - Partly cloudy 10 - - - -
16/01:04pm 25.1 NE 11 14 1019.6 - 0.0 - Partly cloudy 10 - - - -
16/01:00pm 25.1 NE 11 14 1019.6 - 0.0 - Partly cloudy 10 - - - -
16/12:30pm 24.7 NE 12 14 1019.9 - 0.0 - Partly cloudy 10 - - - -
16/12:27pm 24.4 NE 12 14 1019.9 - 0.0 - Partly cloudy 10 - - - -
16/12:26pm 24.6 NE 12 14 1019.9 - 0.0 - Partly cloudy 10 - - - -
16/12:07pm 24.6 NE 11 14 1019.8 - 0.0 - Partly cloudy 10 - - - -
16/12:00pm 24.3 NE 11 13 1019.8 - 0.0 - Cloudy 10 - - - -
16/11:33am 24.9 NE 12 15 1019.9 - 0.0 - Partly cloudy 10 - - - -
16/11:30am 25.0 NE 11 15 1019.9 - 0.0 - Partly cloudy 10 - - - -
16/11:04am 24.5 ENE 10 13 1019.9 - 0.0 - Partly cloudy 10 - - - -
16/11:00am 24.4 ENE 10 13 1019.9 - 0.0 - Partly cloudy 10 - - - -
16/10:30am 24.6 ENE 9 11 1019.8 - 0.0 - - 10 - - - -
16/10:00am 24.3 NE 10 12 1019.6 - 0.0 - - 10 - - - -
16/09:30am 24.2 ENE 9 11 1019.6 - 0.0 - - 10 - - - -
16/09:00am 24.2 ENE 8 11 1019.4 R 0.0 Fine Mostly clear 30 - - - -
16/08:30am 23.8 ENE 9 11 1019.5 - 0.0 - - 10 - - - -
16/08:00am 23.5 ENE 9 11 1019.5 - 0.0 - - 10 - - - -
16/07:30am 23.3 ENE 9 11 1019.4 - 0.0 - - 10 - - - -
16/07:00am 22.9 ENE 9 11 1019.1 - 0.0 - - 10 - - - -
16/06:30am 22.6 ENE 9 10 1018.9 - 0.0 - - 10 - - - -
16/06:00am 22.0 ENE 8 10 1018.6 F 0.0 Fine Mostly clear 25 - - - -
16/05:30am 21.4 ENE 8 11 1018.3 - 0.0 - - 10 - - - -
16/05:00am 21.3 ENE 8 10 1018.1 - 0.0 - - 10 - - - -
16/04:30am 21.2 ENE 7 10 1018.1 - 0.0 - - 10 - - - -
16/04:00am 21.2 ENE 7 9 1018.0 - 0.0 - - 10 - - - -
16/03:30am 21.3 ENE 8 10 1018.0 - 0.0 - - 10 - - - -
16/03:00am 21.5 ENE 9 11 1018.1 - 0.0 - - 10 - - - -
16/02:30am 21.4 ENE 8 11 1018.3 - 0.0 - - 10 - - - -
16/02:00am 21.5 ENE 9 13 1018.2 - 0.0 - - 10 - - - -
16/01:30am 21.6 ENE 10 12 1018.4 - 0.0 - - 10 - - - -
16/01:00am 21.7 ENE 9 12 1018.6 - 0.0 - - 10 - - - -
16/12:30am 21.7 ENE 9 12 1018.8 - 0.0 - - 10 - - - -
16/12:00am 21.8 E 10 12 1019.0 - 0.0 - Mostly clear 10 - - - -
 
Date/Time
EDT
Temp
°C
Wind Pressure Rain since
9am
mm
Weather Cloud Vis
km
Sea
Height
m
Swell
Dir  Spd
kts
Gust
kts
hPa Trend Height
m
Period
s
Dir
15/11:30pm 21.8 ENE 10 13 1019.0 - 0.0 - - 10 - - - -
15/11:00pm 22.0 E 11 13 1019.0 - 0.0 - - 10 - - - -
15/10:30pm 22.0 ENE 11 15 1019.0 - 0.0 - - 10 - - - -
15/10:00pm 22.1 ENE 11 15 1019.0 - 0.0 - - 10 - - - -
15/09:30pm 22.1 ENE 11 14 1018.7 - 0.0 - - 10 - - - -
15/09:00pm 22.1 ENE 12 15 1018.4 - 0.0 - - 10 - - - -
15/08:30pm 22.1 ENE 10 13 1018.2 - 0.0 - - 10 - - - -
15/08:00pm 22.1 ENE 11 14 1017.9 - 0.0 - - 10 - - - -
15/07:30pm 22.3 ENE 11 13 1017.6 - 0.0 - - 10 - - - -
15/07:00pm 22.5 ENE 11 13 1017.3 - 0.0 - - 10 - - - -
15/06:30pm 23.0 ENE 11 13 1016.9 - 0.0 - - 10 - - - -
15/06:00pm 23.4 ENE 11 13 1016.5 - 0.0 - - 10 - - - -
15/05:30pm 23.6 ENE 11 13 1016.3 - 0.0 - Partly cloudy 10 - - - -
15/05:00pm 23.9 NE 11 14 1016.2 - 0.0 - - 10 - - - -
15/04:30pm 24.1 NE 11 14 1016.1 - 0.0 - Mostly clear 10 - - - -
15/04:00pm 24.2 NE 12 15 1016.2 - 0.0 - Mostly clear 10 - - - -
15/03:30pm 24.4 NE 13 15 1016.3 - 0.0 - Mostly clear 10 - - - -
15/03:00pm 24.6 NE 13 15 1016.5 - 0.0 - Mostly clear 10 - - - -
15/02:30pm 24.7 NE 13 15 1016.6 - 0.0 - Mostly clear 10 - - - -
15/02:00pm 24.5 NE 12 15 1016.9 - 0.0 - Mostly clear 10 - - - -
15/01:30pm 24.5 NE 13 15 1016.8 - 0.0 - Mostly clear 10 - - - -
15/01:00pm 24.9 NE 13 15 1016.9 - 0.0 - Mostly clear 10 - - - -
15/12:30pm 25.1 NE 14 16 1017.0 - 0.0 - Partly cloudy 10 - - - -
15/12:00pm 24.5 NE 13 16 1017.1 - 0.0 - Cloudy 10 - - - -
15/11:30am 24.5 NE 12 13 1017.2 - 0.0 - Mostly clear 10 - - - -
15/11:00am 24.7 NE 12 14 1017.3 - 0.0 - Partly cloudy 10 - - - -
15/10:30am 24.4 NE 10 13 1017.3 - 0.0 - Partly cloudy 10 - - - -
15/10:00am 24.0 NE 12 14 1017.2 - 0.0 - Mostly clear 10 - - - -
15/09:30am 24.2 NE 13 15 1017.1 - 0.0 - Mostly clear 10 - - - -
15/09:00am 23.6 ENE 11 15 1017.0 - 0.0 - Partly cloudy 10 - - - -
15/08:30am 23.7 ENE 11 13 1016.9 - 0.0 - Mostly clear 10 - - - -
15/08:00am 23.1 ENE 11 13 1016.9 - 0.0 - Mostly clear 10 - - - -
15/07:30am 23.1 ENE 12 15 1016.8 - 0.0 - Partly cloudy 10 - - - -
15/07:00am 22.8 ENE 12 14 1016.6 - 0.0 - Partly cloudy 10 - - - -
15/06:30am 22.3 NE 12 13 1016.3 - 0.0 - Partly cloudy 10 - - - -
15/06:00am 21.7 ENE 10 13 1016.0 - 0.0 - Partly cloudy 10 - - - -
15/05:30am 21.5 ENE 12 14 1015.6 - 0.0 - Partly cloudy 10 - - - -
15/05:00am 21.4 ENE 10 13 1015.4 - 0.0 - - 10 - - - -
15/04:30am 21.3 ENE 10 13 1015.1 - 0.0 - Partly cloudy 10 - - - -
15/04:00am 21.4 NE 11 13 1014.9 - 0.0 - Partly cloudy 10 - - - -
15/03:30am 21.3 ENE 9 11 1015.0 - 0.0 - Partly cloudy 10 - - - -
15/03:00am 21.5 NE 10 12 1015.0 - 0.0 - Mostly cloudy 10 - - - -
15/02:30am 21.3 NE 9 11 1015.0 - 0.0 - Partly cloudy 10 - - - -
15/02:00am 21.2 NE 9 11 1015.1 - 0.0 - Partly cloudy 10 - - - -
15/01:30am 21.0 NE 8 11 1015.2 - 0.0 - - 10 - - - -
15/01:00am 21.1 NE 7 9 1015.6 - 0.0 - - 10 - - - -
15/12:30am 21.2 NE 9 11 1015.7 - 0.0 - - 10 - - - -
15/12:00am 21.4 NE 9 12 1015.9 - 0.0 - - 10 - - - -
 
Date/Time
EDT
Temp
°C
Wind Pressure Rain since
9am
mm
Weather Cloud Vis
km
Sea
Height
m
Swell
Dir  Spd
kts
Gust
kts
hPa Trend Height
m
Period
s
Dir
14/11:30pm 21.5 ENE 10 13 1016.1 - 0.0 - - 10 - - - -
14/11:00pm 21.5 ENE 10 13 1016.3 - 0.0 - Partly cloudy 10 - - - -
14/10:30pm 21.5 NE 10 12 1016.3 - 0.0 - Partly cloudy 10 - - - -
14/10:00pm 21.6 NE 10 13 1016.2 - 0.0 - Partly cloudy 10 - - - -
14/09:30pm 21.7 NE 11 14 1016.1 - 0.0 - Partly cloudy 10 - - - -
14/09:00pm 21.7 NE 12 15 1015.8 - 0.0 - - 10 - - - -
14/08:30pm 21.8 NE 12 15 1015.5 - 0.0 - Partly cloudy 10 - - - -
14/08:00pm 21.8 ENE 11 14 1015.5 - 0.0 - Partly cloudy 10 - - - -
14/07:30pm 21.9 ENE 11 14 1015.3 - 0.0 - Partly cloudy 10 - - - -
14/07:00pm 22.1 ENE 11 13 1015.1 - 0.0 - Partly cloudy 10 - - - -
14/06:30pm 22.8 ENE 9 12 1015.0 - 0.0 - Partly cloudy 10 - - - -
14/06:00pm 22.8 ENE 10 13 1014.6 - 0.0 - Mostly clear 10 - - - -
14/05:30pm 23.2 NE 9 12 1014.3 - 0.0 - - 10 - - - -
14/05:00pm 23.6 ENE 9 12 1014.3 - 0.0 - - 10 - - - -
14/04:30pm 23.5 ENE 9 12 1014.3 - 0.0 - - 10 - - - -
14/04:00pm 23.9 ENE 10 12 1014.4 - 0.0 - - 10 - - - -
14/03:30pm 23.9 NE 10 12 1014.6 - 0.0 - Partly cloudy 10 - - - -
14/03:00pm 23.4 NE 9 11 1014.7 - 0.0 - Mostly clear 10 - - - -
14/02:30pm 24.0 NE 10 13 1014.7 - 0.0 - Partly cloudy 10 - - - -
14/02:00pm 23.7 NE 11 13 1014.7 - 0.0 - Partly cloudy 10 - - - -
14/01:30pm 24.1 NE 10 12 1014.8 - 0.0 - Partly cloudy 10 - - - -
14/01:00pm 24.0 NE 11 13 1014.8 - 0.0 - Partly cloudy 10 - - - -
14/12:30pm 24.0 NE 8 11 1015.2 - 0.0 - Partly cloudy 10 - - - -
14/12:00pm 24.3 NE 9 11 1015.2 - 0.0 - Mostly cloudy 10 - - - -

Other Formats:

Comma delimited format used in spreadsheet applications
http://www.bom.gov.au/fwo/IDN60701/IDN60701.94995.axf

JavaScript Object Notation format (JSON) in row-major order
http://www.bom.gov.au/fwo/IDN60701/IDN60701.94995.json